Poplar Arrow — C6TQ3 — position and weather

sailwx.info

Track history (hours):
 
Tides and Currents Weather Stations Pressure Air Temp Water Temp Dewpoint Dewpoint Depression Visibility Wind Speed Wind Dir Waves Ship Positions

Poplar Arrow

Last reported at 2014-Aug-29 00:00 UTC. Time now 2014-Aug-29 01:36 UTC.
Position N 18°36' W 021°06'.

Length 190 m; draft 7.7 m.

Type: Cargo ship. MMSI: 311744000.

Wind from 360 at 15 knots

Waves 1.0 meters (3 feet), 4 second period

Barometer 1015.2 mb
Air temperature 25.0 ° C
Visibility: greater than 5.4 NM
Dewpoint 22.0 ° C
Water temperature 26.0 ° C

Date/timePositionNaut miles runAvg speedWind from/ knotsBaromVisibWave heightAir tempDewpointWater temp
2014-Aug-29 00:00N 18°36' W 021°06'4811.9 360 / 151015.2 5.4 1.025.022.026.0
2014-Aug-28 20:00N 19°18' W 020°42'29712.4 350 / 151013.2 5.4 0.525.122.324.0
2014-Aug-27 20:00N 23°48' W 018°30'5313.2 010 / 151015.7 2.2 0.523.122.124.0
2014-Aug-27 16:00N 24°36' W 018°06'21312.5 020 / 151013.9 5.4 1.528.022.124.0
2014-Aug-26 23:00N 27°48' W 016°24'28512.6 040 / 321016.1 5.4 3.023.019.923.0
2014-Aug-26 00:22N 31°09' W 012°32'1312.2
2014-Aug-25 23:15N 31°18' W 012°20'912.3
2014-Aug-25 22:33N 31°24' W 012°13'1612.5
2014-Aug-25 21:14N 31°35' W 011°59'3124.7
2014-Aug-25 20:00N 31°54' W 011°30'15511.5 020 / 231015.410.8 1.523.021.523.0
2014-Aug-25 06:31N 33°40' W 009°15'241 7.5
2014-Aug-23 22:14N 36°05' W 005°21'118 5.0
2014-Aug-22 22:30N 36°21' W 002°55'2511.1
2014-Aug-22 20:16N 36°24' W 002°25'1010.6
2014-Aug-22 19:21N 36°26' W 002°13'911.2
2014-Aug-22 18:33N 36°29' W 002°03'1311.1
2014-Aug-22 17:24N 36°34' W 001°48'1111.4
2014-Aug-22 16:28N 36°38' W 001°36'1011.2
2014-Aug-22 15:32N 36°43' W 001°24'1111.3
2014-Aug-22 14:33N 36°47' W 001°12'1211.5
2014-Aug-22 13:32N 36°52' W 000°58'2811.6
2014-Aug-22 11:08N 37°04' W 000°27'2211.8
2014-Aug-22 09:15N 37°13' W 000°01'811.7
2014-Aug-22 08:33N 37°17' E 000°08'1211.8
2014-Aug-22 07:33N 37°21' E 000°22'1212.5
2014-Aug-22 06:33N 37°27' E 000°36'1212.4
2014-Aug-22 05:33N 37°32' E 000°50'1211.7
2014-Aug-22 04:33N 37°37' E 001°03'1211.8
2014-Aug-22 03:33N 37°41' E 001°17'5911.9
2014-Aug-21 22:33N 38°06' E 002°26'1212.0
2014-Aug-21 21:33N 38°11' E 002°40'2512.1
2014-Aug-21 19:27N 38°22' E 003°09'29511.8
2014-Aug-20 18:25N 41°54' E 007°36'1011.4
2014-Aug-20 17:33N 42°02' E 007°45'2311.2
2014-Aug-20 15:28N 42°20' E 008°05'1010.9
2014-Aug-20 14:34N 42°27' E 008°14'1510.3
2014-Aug-20 13:07N 42°39' E 008°27'610.3
2014-Aug-20 12:33N 42°43' E 008°32'1110.3
2014-Aug-20 11:32N 42°51' E 008°41'1210.1
2014-Aug-20 10:21N 42°57' E 008°55'810.1
2014-Aug-20 09:33N 43°02' E 009°04'1111.4
2014-Aug-20 08:33N 43°08' E 009°17'1111.1
2014-Aug-20 07:32N 43°12' E 009°31'1111.7
2014-Aug-20 06:33N 43°16' E 009°46'1211.7
2014-Aug-20 05:33N 43°20' E 010°01'1212.3
2014-Aug-20 04:33N 43°30' E 010°11'6 5.8
2014-Aug-20 03:33N 43°33' E 010°18'0 0.0
2014-Aug-20 02:28N 43°33' E 010°18'0 0.0
2014-Aug-20 01:33N 43°33' E 010°18'0 0.0
2014-Aug-20 00:33N 43°33' E 010°18'0 0.0
2014-Aug-19 23:33N 43°33' E 010°18'0 0.0
2014-Aug-19 22:32N 43°33' E 010°18'0 0.0
2014-Aug-19 21:32N 43°33' E 010°18'0 0.0
2014-Aug-19 20:31N 43°33' E 010°18'0 0.0
2014-Aug-19 19:31N 43°33' E 010°18'0 0.0
2014-Aug-19 18:33N 43°33' E 010°18'0 0.1
2014-Aug-19 17:33N 43°33' E 010°18'0 0.0
2014-Aug-19 16:32N 43°33' E 010°18'0 0.0
2014-Aug-19 15:29N 43°33' E 010°18'0 0.0
2014-Aug-19 14:29N 43°33' E 010°18'0 0.0
2014-Aug-19 13:31N 43°33' E 010°18'0 0.0
2014-Aug-19 12:31N 43°33' E 010°18'0 0.0
2014-Aug-19 11:33N 43°33' E 010°18'0 0.0
2014-Aug-19 10:33N 43°33' E 010°18'0 0.0
2014-Aug-19 09:29N 43°33' E 010°18'0 0.0
2014-Aug-19 08:26N 43°33' E 010°18'0 0.0
2014-Aug-19 07:32N 43°33' E 010°18'0 0.0
2014-Aug-19 06:31N 43°33' E 010°18'0 0.0
2014-Aug-19 05:31N 43°33' E 010°18'0 0.0
2014-Aug-19 04:33N 43°33' E 010°18'0 0.0
2014-Aug-19 03:33N 43°33' E 010°18'0 0.0
2014-Aug-19 02:32N 43°33' E 010°18'0 0.0
2014-Aug-19 01:31N 43°33' E 010°18'0 0.0
2014-Aug-19 00:33N 43°33' E 010°18'  
Track history (hours):
 
Tides and Currents Weather Stations Pressure Air Temp Water Temp Dewpoint Dewpoint Depression Visibility Wind Speed Wind Dir Waves Ship Positions

Poplar Arrow

Last reported at 2014-Aug-29 00:00 UTC. Time now 2014-Aug-29 01:36 UTC.
Position N 18°36' W 021°06'.

Length 190 m; draft 7.7 m.

Type: Cargo ship. MMSI: 311744000.

Wind from 360 at 15 knots

Waves 1.0 meters (3 feet), 4 second period

Barometer 1015.2 mb
Air temperature 25.0 ° C
Visibility: greater than 5.4 NM
Dewpoint 22.0 ° C
Water temperature 26.0 ° C

Date/timePositionNaut miles runAvg speedWind from/ knotsBaromVisibWave heightAir tempDewpointWater temp
2014-Aug-29 00:00N 18°36' W 021°06'4811.9 360 / 151015.2 5.4 1.025.022.026.0
2014-Aug-28 20:00N 19°18' W 020°42'29712.4 350 / 151013.2 5.4 0.525.122.324.0
2014-Aug-27 20:00N 23°48' W 018°30'5313.2 010 / 151015.7 2.2 0.523.122.124.0
2014-Aug-27 16:00N 24°36' W 018°06'21312.5 020 / 151013.9 5.4 1.528.022.124.0
2014-Aug-26 23:00N 27°48' W 016°24'28512.6 040 / 321016.1 5.4 3.023.019.923.0
2014-Aug-26 00:22N 31°09' W 012°32'1312.2
2014-Aug-25 23:15N 31°18' W 012°20'912.3
2014-Aug-25 22:33N 31°24' W 012°13'1612.5
2014-Aug-25 21:14N 31°35' W 011°59'3124.7
2014-Aug-25 20:00N 31°54' W 011°30'15511.5 020 / 231015.410.8 1.523.021.523.0
2014-Aug-25 06:31N 33°40' W 009°15'241 7.5
2014-Aug-23 22:14N 36°05' W 005°21'118 5.0
2014-Aug-22 22:30N 36°21' W 002°55'2511.1
2014-Aug-22 20:16N 36°24' W 002°25'1010.6
2014-Aug-22 19:21N 36°26' W 002°13'911.2
2014-Aug-22 18:33N 36°29' W 002°03'1311.1
2014-Aug-22 17:24N 36°34' W 001°48'1111.4
2014-Aug-22 16:28N 36°38' W 001°36'1011.2
2014-Aug-22 15:32N 36°43' W 001°24'1111.3
2014-Aug-22 14:33N 36°47' W 001°12'1211.5
2014-Aug-22 13:32N 36°52' W 000°58'2811.6
2014-Aug-22 11:08N 37°04' W 000°27'2211.8
2014-Aug-22 09:15N 37°13' W 000°01'811.7
2014-Aug-22 08:33N 37°17' E 000°08'1211.8
2014-Aug-22 07:33N 37°21' E 000°22'1212.5
2014-Aug-22 06:33N 37°27' E 000°36'1212.4
2014-Aug-22 05:33N 37°32' E 000°50'1211.7
2014-Aug-22 04:33N 37°37' E 001°03'1211.8
2014-Aug-22 03:33N 37°41' E 001°17'5911.9
2014-Aug-21 22:33N 38°06' E 002°26'1212.0
2014-Aug-21 21:33N 38°11' E 002°40'2512.1
2014-Aug-21 19:27N 38°22' E 003°09'29511.8
2014-Aug-20 18:25N 41°54' E 007°36'1011.4
2014-Aug-20 17:33N 42°02' E 007°45'2311.2
2014-Aug-20 15:28N 42°20' E 008°05'1010.9
2014-Aug-20 14:34N 42°27' E 008°14'1510.3
2014-Aug-20 13:07N 42°39' E 008°27'610.3
2014-Aug-20 12:33N 42°43' E 008°32'1110.3
2014-Aug-20 11:32N 42°51' E 008°41'1210.1
2014-Aug-20 10:21N 42°57' E 008°55'810.1
2014-Aug-20 09:33N 43°02' E 009°04'1111.4
2014-Aug-20 08:33N 43°08' E 009°17'1111.1
2014-Aug-20 07:32N 43°12' E 009°31'1111.7
2014-Aug-20 06:33N 43°16' E 009°46'1211.7
2014-Aug-20 05:33N 43°20' E 010°01'1212.3
2014-Aug-20 04:33N 43°30' E 010°11'6 5.8
2014-Aug-20 03:33N 43°33' E 010°18'0 0.0
2014-Aug-20 02:28N 43°33' E 010°18'0 0.0
2014-Aug-20 01:33N 43°33' E 010°18'0 0.0
2014-Aug-20 00:33N 43°33' E 010°18'0 0.0
2014-Aug-19 23:33N 43°33' E 010°18'0 0.0
2014-Aug-19 22:32N 43°33' E 010°18'0 0.0
2014-Aug-19 21:32N 43°33' E 010°18'0 0.0
2014-Aug-19 20:31N 43°33' E 010°18'0 0.0
2014-Aug-19 19:31N 43°33' E 010°18'0 0.0
2014-Aug-19 18:33N 43°33' E 010°18'0 0.1
2014-Aug-19 17:33N 43°33' E 010°18'0 0.0
2014-Aug-19 16:32N 43°33' E 010°18'0 0.0
2014-Aug-19 15:29N 43°33' E 010°18'0 0.0
2014-Aug-19 14:29N 43°33' E 010°18'0 0.0
2014-Aug-19 13:31N 43°33' E 010°18'0 0.0
2014-Aug-19 12:31N 43°33' E 010°18'0 0.0
2014-Aug-19 11:33N 43°33' E 010°18'0 0.0
2014-Aug-19 10:33N 43°33' E 010°18'0 0.0
2014-Aug-19 09:29N 43°33' E 010°18'0 0.0
2014-Aug-19 08:26N 43°33' E 010°18'0 0.0
2014-Aug-19 07:32N 43°33' E 010°18'0 0.0
2014-Aug-19 06:31N 43°33' E 010°18'0 0.0
2014-Aug-19 05:31N 43°33' E 010°18'0 0.0
2014-Aug-19 04:33N 43°33' E 010°18'0 0.0
2014-Aug-19 03:33N 43°33' E 010°18'0 0.0
2014-Aug-19 02:32N 43°33' E 010°18'0 0.0
2014-Aug-19 01:31N 43°33' E 010°18'0 0.0
2014-Aug-19 00:33N 43°33' E 010°18'  

Dump ship's entire track history